createdAt,value
2022-08-19T00:00:51.191Z,100452.69
2022-08-19T00:03:17.939Z,100444.69
2022-08-19T00:05:44.319Z,100442.41
2022-08-19T00:08:10.624Z,100445.09
2022-08-19T00:10:36.940Z,100457.13
2022-08-19T00:13:05.099Z,100452.75
2022-08-19T00:15:31.411Z,100453.63
2022-08-19T00:17:57.734Z,100446.19
2022-08-19T00:20:24.322Z,100438.66
2022-08-19T00:22:50.713Z,100435.72
2022-08-19T00:25:17.602Z,100427.28
2022-08-19T00:27:44.138Z,100428.16
2022-08-19T00:30:11.438Z,100416.22
2022-08-19T00:32:37.976Z,100427.44
2022-08-19T00:35:04.752Z,100422.59
2022-08-19T00:37:31.060Z,100414.22
2022-08-19T00:39:57.479Z,100407.22
2022-08-19T00:42:23.976Z,100408.03
2022-08-19T00:44:51.331Z,100408.47
2022-08-19T00:47:17.778Z,100408.81
2022-08-19T00:49:52.137Z,100406.59
2022-08-19T00:52:39.678Z,100415.31
2022-08-19T00:55:12.464Z,100405.88
2022-08-19T00:57:41.117Z,100408.34
2022-08-19T01:00:11.670Z,100406.03
2022-08-19T01:02:38.069Z,100402.09
2022-08-19T01:05:07.352Z,100401.47
2022-08-19T01:07:35.729Z,100392.00
2022-08-19T01:10:05.385Z,100388.22
2022-08-19T01:12:31.725Z,100388.28
2022-08-19T01:14:58.295Z,100398.50
2022-08-19T01:17:25.463Z,100404.00
2022-08-19T01:19:51.982Z,100403.13
2022-08-19T01:22:30.119Z,100397.78
2022-08-19T01:24:59.463Z,100409.00
2022-08-19T01:27:25.772Z,100406.13
2022-08-19T01:29:52.084Z,100414.88
2022-08-19T01:32:32.088Z,100415.28
2022-08-19T01:35:02.955Z,100411.56
2022-08-19T01:37:30.325Z,100408.72
2022-08-19T01:39:57.025Z,100402.19
2022-08-19T01:42:30.374Z,100393.34
2022-08-19T01:44:57.255Z,100386.34
2022-08-19T01:47:23.593Z,100396.69
2022-08-19T01:49:49.905Z,100393.91
2022-08-19T01:52:16.255Z,100400.84
2022-08-19T01:54:42.597Z,100394.50
2022-08-19T01:57:12.191Z,100395.03
2022-08-19T01:59:38.756Z,100389.88
2022-08-19T02:02:08.039Z,100387.78
2022-08-19T02:04:35.103Z,100382.09
2022-08-19T02:07:01.545Z,100387.59
2022-08-19T02:09:28.118Z,100391.75
2022-08-19T02:11:54.422Z,100390.09
2022-08-19T02:14:20.717Z,100391.31
2022-08-19T02:16:47.029Z,100390.88
2022-08-19T02:19:13.870Z,100397.75
2022-08-19T02:21:40.209Z,100405.59
2022-08-19T02:24:06.593Z,100403.94
2022-08-19T02:26:33.351Z,100395.31
2022-08-19T02:29:01.230Z,100400.22
2022-08-19T02:31:28.906Z,100414.53
2022-08-19T02:33:56.686Z,100420.03
2022-08-19T02:36:24.073Z,100424.03
2022-08-19T02:38:54.741Z,100426.53
2022-08-19T02:41:32.436Z,100424.88
2022-08-19T02:44:28.792Z,100425.72
2022-08-19T02:46:47.892Z,100435.56
2022-08-19T02:49:17.169Z,100446.09
2022-08-19T02:51:44.597Z,100452.19
2022-08-19T02:54:11.921Z,100449.59
2022-08-19T02:56:38.976Z,100457.41
2022-08-19T02:59:11.803Z,100461.75
2022-08-19T03:01:40.430Z,100463.09
2022-08-19T03:04:08.466Z,100467.41
2022-08-19T03:06:37.301Z,100466.53
2022-08-19T03:09:03.656Z,100461.41
2022-08-19T03:11:31.607Z,100454.19
2022-08-19T03:13:58.898Z,100451.41
2022-08-19T03:16:26.404Z,100443.84
2022-08-19T03:18:53.864Z,100432.16
2022-08-19T03:21:24.843Z,100425.22
2022-08-19T03:23:51.611Z,100413.31
2022-08-19T03:26:17.943Z,100397.00
2022-08-19T03:28:51.172Z,100394.63
2022-08-19T03:31:45.158Z,100375.00
2022-08-19T03:34:12.630Z,100368.19
2022-08-19T03:36:40.245Z,100358.84
2022-08-19T03:39:06.840Z,100349.63
2022-08-19T03:41:44.634Z,100334.13
2022-08-19T03:44:18.911Z,100314.25
2022-08-19T03:46:46.361Z,100305.63
2022-08-19T03:49:14.309Z,100309.09
2022-08-19T03:51:41.722Z,100307.34
2022-08-19T03:54:09.161Z,100321.13
2022-08-19T03:56:36.623Z,100316.22
2022-08-19T03:59:03.977Z,100300.38
2022-08-19T04:01:35.107Z,100308.91
2022-08-19T04:04:03.461Z,100322.91
2022-08-19T04:06:32.412Z,100342.28
2022-08-19T04:08:59.797Z,100350.56
2022-08-19T04:11:43.091Z,100361.09
2022-08-19T04:14:11.307Z,100365.38
2022-08-19T04:16:37.633Z,100356.16
2022-08-19T04:19:04.949Z,100358.00
2022-08-19T04:21:31.337Z,100360.72
2022-08-19T04:23:58.167Z,100366.59
2022-08-19T04:26:27.061Z,100361.78
2022-08-19T04:28:54.161Z,100369.59
2022-08-19T04:31:23.313Z,100368.59
2022-08-19T04:33:49.646Z,100366.75
2022-08-19T04:36:21.317Z,100369.09
2022-08-19T04:38:51.404Z,100378.88
2022-08-19T04:41:36.200Z,100399.25
2022-08-19T04:44:04.488Z,100413.09
2022-08-19T04:46:40.351Z,100415.38
2022-08-19T04:49:18.444Z,100412.06
2022-08-19T04:51:46.843Z,100398.78
2022-08-19T04:54:13.393Z,100387.38
2022-08-19T04:56:40.301Z,100391.78
2022-08-19T04:59:06.699Z,100394.19
2022-08-19T05:01:34.197Z,100394.19
2022-08-19T05:04:01.777Z,100389.41
2022-08-19T05:06:29.595Z,100387.91
2022-08-19T05:08:57.023Z,100390.97
2022-08-19T05:11:26.813Z,100389.91
2022-08-19T05:13:53.393Z,100380.91
2022-08-19T05:16:21.499Z,100385.34
2022-08-19T05:19:06.722Z,100389.38
2022-08-19T05:21:52.112Z,100398.34
2022-08-19T05:24:20.413Z,100399.41
2022-08-19T05:26:47.949Z,100388.22
2022-08-19T05:29:15.378Z,100396.75
2022-08-19T05:31:42.195Z,100393.28
2022-08-19T05:34:20.228Z,100390.00
2022-08-19T05:36:46.855Z,100380.44
2022-08-19T05:39:14.873Z,100367.09
2022-08-19T05:41:48.743Z,100364.19
2022-08-19T05:44:15.088Z,100360.09
2022-08-19T05:46:43.651Z,100355.97
2022-08-19T05:49:09.981Z,100367.66
2022-08-19T05:51:38.257Z,100362.03
2022-08-19T05:54:06.340Z,100368.03
2022-08-19T05:56:32.839Z,100365.94
2022-08-19T05:58:59.515Z,100365.31
2022-08-19T06:01:26.775Z,100364.72
2022-08-19T06:03:53.285Z,100360.56
2022-08-19T06:06:20.225Z,100359.94
2022-08-19T06:08:51.821Z,100362.56
2022-08-19T06:11:44.493Z,100366.97
2022-08-19T06:14:16.544Z,100362.97
2022-08-19T06:16:43.730Z,100358.31
2022-08-19T06:19:11.621Z,100359.59
2022-08-19T06:21:39.182Z,100362.66
2022-08-19T06:24:07.142Z,100360.97
2022-08-19T06:26:35.636Z,100361.22
2022-08-19T06:29:02.126Z,100374.72
2022-08-19T06:31:29.380Z,100372.25
2022-08-19T06:33:55.696Z,100372.00
2022-08-19T06:36:28.414Z,100364.09
2022-08-19T06:38:55.328Z,100367.72
2022-08-19T06:41:21.722Z,100365.44
2022-08-19T06:43:49.822Z,100370.31
2022-08-19T06:46:20.724Z,100373.78
2022-08-19T06:48:47.811Z,100373.09
2022-08-19T06:51:16.618Z,100381.22
2022-08-19T06:53:47.871Z,100380.16
2022-08-19T06:56:16.542Z,100386.88
2022-08-19T06:58:42.910Z,100384.50
2022-08-19T07:01:09.807Z,100383.44
2022-08-19T07:03:37.407Z,100382.66
2022-08-19T07:06:32.551Z,100389.16
2022-08-19T07:09:04.026Z,100386.94
2022-08-19T07:11:31.582Z,100385.38
2022-08-19T07:14:01.327Z,100379.94
2022-08-19T07:16:29.223Z,100388.28
2022-08-19T07:18:57.075Z,100397.25
2022-08-19T07:21:27.401Z,100396.22
2022-08-19T07:23:57.245Z,100396.44
2022-08-19T07:26:30.112Z,100394.72
2022-08-19T07:28:58.830Z,100396.94
2022-08-19T07:31:26.001Z,100395.97
2022-08-19T07:33:53.409Z,100397.56
2022-08-19T07:36:22.489Z,100403.38
2022-08-19T07:38:52.384Z,100418.88
2022-08-19T07:41:20.543Z,100418.03
2022-08-19T07:43:47.004Z,100421.53
2022-08-19T07:46:14.327Z,100435.53
2022-08-19T07:48:41.759Z,100443.09
2022-08-19T07:51:09.131Z,100452.53
2022-08-19T07:53:39.685Z,100442.47
2022-08-19T07:56:06.750Z,100445.91
2022-08-19T07:58:36.798Z,100440.38
2022-08-19T08:01:04.289Z,100445.84
2022-08-19T08:03:48.974Z,100436.25
2022-08-19T08:06:34.326Z,100442.88
2022-08-19T08:09:13.140Z,100440.44
2022-08-19T08:11:49.537Z,100439.84
2022-08-19T08:14:29.450Z,100435.84
2022-08-19T08:17:01.889Z,100433.84
2022-08-19T08:19:28.693Z,100433.84
2022-08-19T08:21:56.073Z,100440.47
2022-08-19T08:24:22.615Z,100439.72
2022-08-19T08:26:57.515Z,100439.00
2022-08-19T08:29:24.377Z,100443.78
2022-08-19T08:32:00.084Z,100452.13
2022-08-19T08:34:26.770Z,100451.00
2022-08-19T08:36:53.120Z,100445.06
2022-08-19T08:39:20.534Z,100450.75
2022-08-19T08:41:47.465Z,100446.50
2022-08-19T08:44:21.982Z,100450.66
2022-08-19T08:46:54.551Z,100456.13
2022-08-19T08:49:26.434Z,100449.75
2022-08-19T08:51:59.745Z,100457.06
2022-08-19T08:54:29.609Z,100457.78
2022-08-19T08:56:57.541Z,100462.56
2022-08-19T08:59:29.397Z,100459.19
2022-08-19T09:01:55.770Z,100470.03
2022-08-19T09:04:23.415Z,100477.53
2022-08-19T09:06:55.774Z,100477.97
2022-08-19T09:09:33.295Z,100488.84
2022-08-19T09:12:04.604Z,100495.13
2022-08-19T09:14:50.355Z,100478.97
2022-08-19T09:17:18.353Z,100482.56
2022-08-19T09:20:09.143Z,100488.28
2022-08-19T09:22:39.303Z,100489.91
2022-08-19T09:25:07.079Z,100489.78
2022-08-19T09:27:41.991Z,100497.34
2022-08-19T09:30:31.310Z,100493.06
2022-08-19T09:32:58.113Z,100500.56
2022-08-19T09:35:25.833Z,100489.84
2022-08-19T09:37:57.329Z,100483.41
2022-08-19T09:40:24.927Z,100485.41
2022-08-19T09:42:52.727Z,100489.34
2022-08-19T09:45:21.693Z,100479.84
2022-08-19T09:47:48.684Z,100479.13
2022-08-19T09:50:16.470Z,100480.28
2022-08-19T09:52:54.083Z,100477.13
2022-08-19T09:55:24.029Z,100492.31
2022-08-19T09:57:50.625Z,100491.13
2022-08-19T10:00:17.038Z,100488.78
2022-08-19T10:02:44.720Z,100487.66
2022-08-19T10:05:30.534Z,100487.16
2022-08-19T10:07:57.736Z,100492.81
2022-08-19T10:10:24.988Z,100493.72
2022-08-19T10:12:51.361Z,100486.56
2022-08-19T10:15:29.026Z,100488.16
2022-08-19T10:17:56.184Z,100492.63
2022-08-19T10:20:23.649Z,100498.56
2022-08-19T10:22:51.877Z,100498.72
2022-08-19T10:25:19.913Z,100507.44
2022-08-19T10:27:51.385Z,100500.13
2022-08-19T10:30:18.226Z,100490.97
2022-08-19T10:32:46.972Z,100499.13
2022-08-19T10:35:14.071Z,100497.84
2022-08-19T10:38:02.027Z,100486.84
2022-08-19T10:40:30.102Z,100484.13
2022-08-19T10:42:57.036Z,100480.84
2022-08-19T10:45:25.874Z,100479.00
2022-08-19T10:47:54.760Z,100479.75
2022-08-19T10:50:39.929Z,100486.59
2022-08-19T10:53:11.985Z,100475.53
2022-08-19T10:55:57.078Z,100479.47
2022-08-19T10:58:24.704Z,100475.78
2022-08-19T11:00:55.193Z,100476.97
2022-08-19T11:03:22.013Z,100480.13
2022-08-19T11:05:57.647Z,100476.91
2022-08-19T11:08:25.279Z,100465.69
2022-08-19T11:10:54.634Z,100459.69
2022-08-19T11:13:21.126Z,100452.97
2022-08-19T11:15:48.451Z,100454.75
2022-08-19T11:18:14.929Z,100456.91
2022-08-19T11:20:41.247Z,100464.53
2022-08-19T11:23:07.988Z,100458.09
2022-08-19T11:25:35.425Z,100465.69
2022-08-19T11:28:01.941Z,100460.88
2022-08-19T11:30:28.894Z,100464.31
2022-08-19T11:32:55.263Z,100468.06
2022-08-19T11:35:22.067Z,100468.25
2022-08-19T11:37:48.464Z,100470.50
2022-08-19T11:40:15.143Z,100466.03
2022-08-19T11:42:57.151Z,100463.63
2022-08-19T11:45:28.928Z,100465.53
2022-08-19T11:47:55.652Z,100465.91
2022-08-19T11:50:24.319Z,100468.63
2022-08-19T11:52:50.851Z,100470.97
2022-08-19T11:55:17.259Z,100480.13
2022-08-19T11:57:44.759Z,100469.66
2022-08-19T12:00:13.416Z,100470.03
2022-08-19T12:02:40.254Z,100483.13
2022-08-19T12:05:11.533Z,100483.53
2022-08-19T12:07:38.843Z,100487.19
2022-08-19T12:10:05.305Z,100479.16
2022-08-19T12:12:31.936Z,100475.19
2022-08-19T12:14:59.365Z,100478.75
2022-08-19T12:17:28.725Z,100485.72
2022-08-19T12:19:55.362Z,100485.19
2022-08-19T12:22:22.327Z,100496.44
2022-08-19T12:24:49.585Z,100499.22
2022-08-19T12:27:15.985Z,100494.16
2022-08-19T12:30:01.306Z,100497.28
2022-08-19T12:32:27.897Z,100507.94
2022-08-19T12:34:54.987Z,100506.50
2022-08-19T12:37:21.385Z,100506.25
2022-08-19T12:39:47.930Z,100508.66
2022-08-19T12:42:15.226Z,100510.66
2022-08-19T12:44:42.603Z,100503.47
2022-08-19T12:47:10.733Z,100502.78
2022-08-19T12:49:52.629Z,100505.94
2022-08-19T12:52:23.179Z,100511.66
2022-08-19T12:54:53.970Z,100503.53
2022-08-19T12:57:21.239Z,100507.19
2022-08-19T12:59:54.056Z,100507.28
2022-08-19T13:02:20.822Z,100507.69
2022-08-19T13:04:47.644Z,100510.06
2022-08-19T13:07:14.010Z,100509.31
2022-08-19T13:09:43.386Z,100512.19
2022-08-19T13:12:13.774Z,100511.66
2022-08-19T13:14:41.075Z,100499.72
2022-08-19T13:17:07.731Z,100502.03
2022-08-19T13:19:34.059Z,100499.06
2022-08-19T13:22:00.689Z,100486.03
2022-08-19T13:24:31.379Z,100498.53
2022-08-19T13:27:00.986Z,100499.34
2022-08-19T13:29:46.085Z,100494.88
2022-08-19T13:32:31.001Z,100503.25
2022-08-19T13:34:57.333Z,100502.50
2022-08-19T13:37:41.840Z,100510.25
2022-08-19T13:40:12.886Z,100503.19
2022-08-19T13:42:40.047Z,100507.09
2022-08-19T13:45:07.702Z,100512.84
2022-08-19T13:47:43.393Z,100517.56
2022-08-19T13:50:11.746Z,100515.28
2022-08-19T13:52:39.227Z,100519.63
2022-08-19T13:55:05.825Z,100517.03
2022-08-19T13:57:32.309Z,100514.31
2022-08-19T13:59:59.122Z,100520.69
2022-08-19T14:02:26.032Z,100511.59
2022-08-19T14:04:52.374Z,100519.75
2022-08-19T14:07:18.669Z,100517.47
2022-08-19T14:09:45.063Z,100512.69
2022-08-19T14:12:15.639Z,100518.34
2022-08-19T14:14:54.822Z,100519.97
2022-08-19T14:17:21.177Z,100520.16
2022-08-19T14:19:48.192Z,100516.50
2022-08-19T14:22:22.025Z,100516.50
2022-08-19T14:24:49.245Z,100511.78
2022-08-19T14:27:15.713Z,100515.06
2022-08-19T14:29:42.078Z,100511.94
2022-08-19T14:32:08.481Z,100516.16
2022-08-19T14:34:38.274Z,100513.06
2022-08-19T14:37:04.686Z,100515.50
2022-08-19T14:39:31.067Z,100520.94
2022-08-19T14:41:58.239Z,100518.22
2022-08-19T14:44:24.638Z,100516.84
2022-08-19T14:46:51.211Z,100518.28
2022-08-19T14:49:19.311Z,100524.00
2022-08-19T14:51:47.853Z,100519.06
2022-08-19T14:54:14.338Z,100526.16
2022-08-19T14:56:40.943Z,100522.13
2022-08-19T14:59:07.410Z,100524.53
2022-08-19T15:01:34.308Z,100525.16
2022-08-19T15:04:00.709Z,100530.38
2022-08-19T15:06:27.724Z,100528.53
2022-08-19T15:08:54.302Z,100540.38
2022-08-19T15:11:22.283Z,100537.25
2022-08-19T15:13:49.060Z,100539.19
2022-08-19T15:16:18.575Z,100539.97
2022-08-19T15:18:45.611Z,100533.66
2022-08-19T15:21:13.465Z,100521.97
2022-08-19T15:23:40.241Z,100526.53
2022-08-19T15:26:15.979Z,100523.63
2022-08-19T15:28:42.814Z,100528.88
2022-08-19T15:31:09.201Z,100522.88
2022-08-19T15:33:50.436Z,100531.75
2022-08-19T15:36:18.272Z,100532.44
2022-08-19T15:38:46.204Z,100535.56
2022-08-19T15:41:26.162Z,100541.59
2022-08-19T15:43:57.398Z,100532.22
2022-08-19T15:46:25.332Z,100539.44
2022-08-19T15:48:57.317Z,100541.06
2022-08-19T15:51:28.339Z,100545.56
2022-08-19T15:53:55.179Z,100557.50
2022-08-19T15:56:24.520Z,100550.75
2022-08-19T15:59:12.156Z,100545.22
2022-08-19T16:01:57.038Z,100540.78
2022-08-19T16:04:42.067Z,100541.94
2022-08-19T16:07:12.780Z,100547.53
2022-08-19T16:09:39.114Z,100535.47
2022-08-19T16:12:06.070Z,100539.94
2022-08-19T16:14:33.328Z,100545.88
2022-08-19T16:16:59.687Z,100545.66
2022-08-19T16:19:26.078Z,100552.34
2022-08-19T16:21:53.681Z,100554.81
2022-08-19T16:24:21.460Z,100543.34
2022-08-19T16:26:48.242Z,100551.56
2022-08-19T16:29:33.257Z,100560.44
2022-08-19T16:32:02.813Z,100554.72
2022-08-19T16:34:29.448Z,100562.78
2022-08-19T16:36:56.068Z,100560.28
2022-08-19T16:39:23.655Z,100556.59
2022-08-19T16:41:50.912Z,100566.41
2022-08-19T16:44:20.764Z,100574.38
2022-08-19T16:46:58.853Z,100574.28
2022-08-19T16:49:53.123Z,100578.13
2022-08-19T16:52:14.842Z,100577.22
2022-08-19T16:54:41.437Z,100582.94
2022-08-19T16:57:11.717Z,100580.97
2022-08-19T16:59:39.438Z,100580.00
2022-08-19T17:02:14.468Z,100578.03
2022-08-19T17:04:41.030Z,100586.00
2022-08-19T17:07:09.159Z,100585.22
2022-08-19T17:09:36.298Z,100576.44
2022-08-19T17:12:04.684Z,100574.28
2022-08-19T17:14:31.069Z,100574.97
2022-08-19T17:16:57.433Z,100572.94
2022-08-19T17:19:23.759Z,100566.88
2022-08-19T17:21:50.081Z,100562.28
2022-08-19T17:24:16.566Z,100556.28
2022-08-19T17:26:42.971Z,100563.13
2022-08-19T17:29:09.344Z,100565.84
2022-08-19T17:31:35.919Z,100566.44
2022-08-19T17:34:03.689Z,100558.72
2022-08-19T17:36:31.533Z,100565.88
2022-08-19T17:39:00.499Z,100557.44
2022-08-19T17:41:27.364Z,100564.22
2022-08-19T17:43:54.402Z,100565.88
2022-08-19T17:46:20.989Z,100563.56
2022-08-19T17:48:52.263Z,100567.84
2022-08-19T17:51:40.150Z,100550.91
2022-08-19T17:54:06.789Z,100554.50
2022-08-19T17:56:33.124Z,100541.72
2022-08-19T17:59:00.524Z,100543.78
2022-08-19T18:01:40.294Z,100539.97
2022-08-19T18:04:14.851Z,100544.91
2022-08-19T18:06:41.725Z,100546.31
2022-08-19T18:09:13.117Z,100536.75
2022-08-19T18:11:39.645Z,100532.94
2022-08-19T18:14:05.971Z,100531.84
2022-08-19T18:16:32.495Z,100545.69
2022-08-19T18:18:59.013Z,100545.91
2022-08-19T18:21:30.863Z,100541.53
2022-08-19T18:24:01.699Z,100546.25
2022-08-19T18:26:30.244Z,100545.41
2022-08-19T18:28:57.136Z,100546.19
2022-08-19T18:31:23.801Z,100551.22
2022-08-19T18:33:52.569Z,100548.00
2022-08-19T18:36:37.388Z,100556.81
2022-08-19T18:39:25.111Z,100566.28
2022-08-19T18:42:14.253Z,100575.44
2022-08-19T18:45:00.023Z,100578.16
2022-08-19T18:47:45.591Z,100586.50
2022-08-19T18:50:13.066Z,100598.25
2022-08-19T18:52:40.319Z,100590.44
2022-08-19T18:55:07.452Z,100596.38
2022-08-19T18:57:34.505Z,100598.47
2022-08-19T19:00:02.696Z,100602.63
2022-08-19T19:02:29.172Z,100604.19
2022-08-19T19:04:56.095Z,100603.34
2022-08-19T19:07:23.334Z,100604.19
2022-08-19T19:09:52.780Z,100617.31
2022-08-19T19:12:19.299Z,100630.16
2022-08-19T19:14:49.416Z,100628.84
2022-08-19T19:17:16.828Z,100629.84
2022-08-19T19:19:44.082Z,100634.28
2022-08-19T19:22:16.861Z,100634.00
2022-08-19T19:24:46.139Z,100642.03
2022-08-19T19:27:14.114Z,100645.25
2022-08-19T19:29:40.952Z,100652.78
2022-08-19T19:32:08.589Z,100655.94
2022-08-19T19:34:37.287Z,100655.78
2022-08-19T19:37:03.828Z,100659.34
2022-08-19T19:39:45.232Z,100663.44
2022-08-19T19:42:20.103Z,100661.44
2022-08-19T19:44:48.862Z,100653.84
2022-08-19T19:47:16.115Z,100661.78
2022-08-19T19:50:03.816Z,100655.34
2022-08-19T19:52:29.748Z,100657.94
2022-08-19T19:54:56.932Z,100661.06
2022-08-19T19:57:26.801Z,100657.44
2022-08-19T19:59:54.120Z,100662.63
2022-08-19T20:02:21.989Z,100661.94
2022-08-19T20:04:48.906Z,100661.47
2022-08-19T20:07:15.390Z,100670.00
2022-08-19T20:09:58.721Z,100670.22
2022-08-19T20:12:25.980Z,100675.38
2022-08-19T20:14:52.457Z,100671.06
2022-08-19T20:17:20.327Z,100674.16
2022-08-19T20:19:47.751Z,100679.72
2022-08-19T20:22:14.370Z,100685.59
2022-08-19T20:24:42.326Z,100680.06
2022-08-19T20:27:09.288Z,100686.44
2022-08-19T20:29:39.527Z,100681.91
2022-08-19T20:32:08.926Z,100681.78
2022-08-19T20:34:35.265Z,100675.03
2022-08-19T20:37:01.690Z,100684.16
2022-08-19T20:39:28.085Z,100679.06
2022-08-19T20:41:56.314Z,100683.91
2022-08-19T20:44:24.048Z,100674.97
2022-08-19T20:46:54.271Z,100670.59
2022-08-19T20:49:23.008Z,100676.44
2022-08-19T20:51:54.426Z,100666.28
2022-08-19T20:54:20.749Z,100673.50
2022-08-19T20:56:47.107Z,100672.75
2022-08-19T20:59:13.406Z,100667.25
2022-08-19T21:01:39.730Z,100664.75
2022-08-19T21:04:06.150Z,100661.53
2022-08-19T21:06:32.493Z,100650.84
2022-08-19T21:08:58.800Z,100652.44
2022-08-19T21:11:25.300Z,100655.56
2022-08-19T21:13:51.642Z,100648.94
2022-08-19T21:16:18.047Z,100651.03
2022-08-19T21:18:44.402Z,100646.16
2022-08-19T21:21:10.712Z,100640.56
2022-08-19T21:23:36.992Z,100645.03
2022-08-19T21:26:03.510Z,100643.06
2022-08-19T21:28:36.138Z,100642.03
2022-08-19T21:31:03.966Z,100639.47
2022-08-19T21:33:31.981Z,100622.78
2022-08-19T21:35:59.218Z,100628.81
2022-08-19T21:38:25.539Z,100619.34
2022-08-19T21:40:51.840Z,100621.72
2022-08-19T21:43:18.269Z,100611.38
2022-08-19T21:45:45.533Z,100602.28
2022-08-19T21:48:12.552Z,100596.59
2022-08-19T21:50:38.852Z,100599.59
2022-08-19T21:53:05.198Z,100600.31
2022-08-19T21:55:31.719Z,100613.38
2022-08-19T21:58:01.683Z,100615.81
2022-08-19T22:00:30.282Z,100629.38
2022-08-19T22:02:58.729Z,100629.41
2022-08-19T22:05:25.600Z,100628.53
2022-08-19T22:07:52.894Z,100631.94
2022-08-19T22:10:19.812Z,100626.75
2022-08-19T22:12:51.309Z,100632.69
2022-08-19T22:15:20.512Z,100649.38
2022-08-19T22:17:47.097Z,100643.78
2022-08-19T22:20:15.650Z,100641.75
2022-08-19T22:22:47.363Z,100636.31
2022-08-19T22:25:31.304Z,100630.38
2022-08-19T22:28:00.575Z,100622.03
2022-08-19T22:30:33.564Z,100630.03
2022-08-19T22:33:02.299Z,100628.75
2022-08-19T22:35:31.340Z,100638.84
2022-08-19T22:37:58.871Z,100648.09
2022-08-19T22:40:26.333Z,100661.38
2022-08-19T22:43:04.423Z,100665.81
2022-08-19T22:45:31.250Z,100669.28
2022-08-19T22:47:57.773Z,100660.16
2022-08-19T22:50:24.430Z,100666.28
2022-08-19T22:52:57.772Z,100669.91
2022-08-19T22:55:25.378Z,100673.47
2022-08-19T22:57:53.314Z,100672.59
2022-08-19T23:00:21.053Z,100672.59
2022-08-19T23:02:51.855Z,100664.47
2022-08-19T23:05:21.855Z,100665.59
2022-08-19T23:07:52.235Z,100669.94
2022-08-19T23:10:26.933Z,100672.72
2022-08-19T23:12:54.992Z,100667.91
2022-08-19T23:15:24.123Z,100660.84
2022-08-19T23:17:50.592Z,100657.06
2022-08-19T23:20:16.962Z,100649.81
2022-08-19T23:22:44.173Z,100641.78
2022-08-19T23:25:13.385Z,100648.38
2022-08-19T23:27:58.152Z,100644.44
2022-08-19T23:30:27.265Z,100645.09
2022-08-19T23:32:58.302Z,100640.72
2022-08-19T23:35:25.402Z,100641.53
2022-08-19T23:37:52.104Z,100639.84
2022-08-19T23:40:21.586Z,100647.75
2022-08-19T23:42:50.996Z,100646.06
2022-08-19T23:45:23.662Z,100646.50
2022-08-19T23:47:50.646Z,100653.97
2022-08-19T23:50:17.029Z,100655.44
2022-08-19T23:52:45.315Z,100651.50
2022-08-19T23:55:11.909Z,100650.44
2022-08-19T23:57:38.245Z,100663.59
